sensor_id;sensor_type;location;lat;lon;timestamp;P1;durP1;ratioP1;P2;durP2;ratioP2
65855;SDS011;52631;42.208;24.656;2023-08-30T00:01:11;14.45;;;10.23;;
65855;SDS011;52631;42.208;24.656;2023-08-30T00:03:36;12.77;;;9.18;;
65855;SDS011;52631;42.208;24.656;2023-08-30T00:06:02;12.45;;;9.73;;
65855;SDS011;52631;42.208;24.656;2023-08-30T00:08:29;13.55;;;10.05;;
65855;SDS011;52631;42.208;24.656;2023-08-30T00:10:55;13.77;;;9.65;;
65855;SDS011;52631;42.208;24.656;2023-08-30T00:13:23;15.77;;;10.50;;
65855;SDS011;52631;42.208;24.656;2023-08-30T00:15:49;13.40;;;10.13;;
65855;SDS011;52631;42.208;24.656;2023-08-30T00:18:14;13.25;;;9.88;;
65855;SDS011;52631;42.208;24.656;2023-08-30T00:20:40;14.30;;;10.55;;
65855;SDS011;52631;42.208;24.656;2023-08-30T00:23:06;14.45;;;9.93;;
65855;SDS011;52631;42.208;24.656;2023-08-30T00:25:31;13.88;;;9.68;;
65855;SDS011;52631;42.208;24.656;2023-08-30T00:27:57;15.95;;;9.68;;
65855;SDS011;52631;42.208;24.656;2023-08-30T00:30:22;13.63;;;8.80;;
65855;SDS011;52631;42.208;24.656;2023-08-30T00:32:48;14.02;;;9.60;;
65855;SDS011;52631;42.208;24.656;2023-08-30T00:35:13;16.23;;;8.98;;
65855;SDS011;52631;42.208;24.656;2023-08-30T00:37:39;11.02;;;8.68;;
65855;SDS011;52631;42.208;24.656;2023-08-30T00:40:05;15.27;;;8.98;;
65855;SDS011;52631;42.208;24.656;2023-08-30T00:42:31;14.63;;;9.35;;
65855;SDS011;52631;42.208;24.656;2023-08-30T00:44:56;12.77;;;8.60;;
65855;SDS011;52631;42.208;24.656;2023-08-30T00:47:22;23.67;;;8.75;;
65855;SDS011;52631;42.208;24.656;2023-08-30T00:49:48;13.43;;;8.60;;
65855;SDS011;52631;42.208;24.656;2023-08-30T00:52:13;13.50;;;8.45;;
65855;SDS011;52631;42.208;24.656;2023-08-30T00:54:39;11.60;;;8.40;;
65855;SDS011;52631;42.208;24.656;2023-08-30T00:57:06;13.95;;;8.65;;
65855;SDS011;52631;42.208;24.656;2023-08-30T00:59:32;14.27;;;9.18;;
65855;SDS011;52631;42.208;24.656;2023-08-30T01:01:59;14.65;;;9.18;;
65855;SDS011;52631;42.208;24.656;2023-08-30T01:04:26;13.20;;;8.57;;
65855;SDS011;52631;42.208;24.656;2023-08-30T01:06:52;12.93;;;8.88;;
65855;SDS011;52631;42.208;24.656;2023-08-30T01:09:18;12.95;;;9.65;;
65855;SDS011;52631;42.208;24.656;2023-08-30T01:14:52;14.40;;;9.45;;
65855;SDS011;52631;42.208;24.656;2023-08-30T01:17:20;13.50;;;9.60;;
65855;SDS011;52631;42.208;24.656;2023-08-30T01:25:43;15.63;;;9.40;;
65855;SDS011;52631;42.208;24.656;2023-08-30T01:28:10;12.65;;;9.35;;
65855;SDS011;52631;42.208;24.656;2023-08-30T01:30:37;12.40;;;9.35;;
65855;SDS011;52631;42.208;24.656;2023-08-30T01:33:05;14.50;;;9.70;;
65855;SDS011;52631;42.208;24.656;2023-08-30T01:35:32;13.07;;;9.13;;
65855;SDS011;52631;42.208;24.656;2023-08-30T01:38:01;14.32;;;9.55;;
65855;SDS011;52631;42.208;24.656;2023-08-30T01:40:28;13.43;;;9.15;;
65855;SDS011;52631;42.208;24.656;2023-08-30T01:42:54;13.75;;;9.27;;
65855;SDS011;52631;42.208;24.656;2023-08-30T01:45:20;14.57;;;8.98;;
65855;SDS011;52631;42.208;24.656;2023-08-30T01:47:47;12.93;;;8.80;;
65855;SDS011;52631;42.208;24.656;2023-08-30T01:50:13;11.75;;;8.90;;
65855;SDS011;52631;42.208;24.656;2023-08-30T01:52:39;12.95;;;8.77;;
65855;SDS011;52631;42.208;24.656;2023-08-30T01:55:05;12.00;;;8.20;;
65855;SDS011;52631;42.208;24.656;2023-08-30T01:57:33;13.23;;;8.60;;
65855;SDS011;52631;42.208;24.656;2023-08-30T01:59:58;12.38;;;9.57;;
65855;SDS011;52631;42.208;24.656;2023-08-30T02:02:24;12.55;;;8.60;;
65855;SDS011;52631;42.208;24.656;2023-08-30T02:04:49;12.93;;;9.10;;
65855;SDS011;52631;42.208;24.656;2023-08-30T02:07:20;15.15;;;9.50;;
65855;SDS011;52631;42.208;24.656;2023-08-30T02:09:56;12.00;;;8.73;;
65855;SDS011;52631;42.208;24.656;2023-08-30T02:12:24;14.93;;;9.13;;
65855;SDS011;52631;42.208;24.656;2023-08-30T02:14:57;12.93;;;9.93;;
65855;SDS011;52631;42.208;24.656;2023-08-30T02:17:23;14.20;;;10.00;;
65855;SDS011;52631;42.208;24.656;2023-08-30T02:19:49;12.40;;;9.13;;
65855;SDS011;52631;42.208;24.656;2023-08-30T02:22:18;12.43;;;9.52;;
65855;SDS011;52631;42.208;24.656;2023-08-30T02:24:43;15.50;;;10.05;;
65855;SDS011;52631;42.208;24.656;2023-08-30T02:27:09;13.35;;;9.27;;
65855;SDS011;52631;42.208;24.656;2023-08-30T02:29:34;13.27;;;9.13;;
65855;SDS011;52631;42.208;24.656;2023-08-30T02:32:00;13.30;;;9.52;;
65855;SDS011;52631;42.208;24.656;2023-08-30T02:34:25;11.55;;;9.00;;
65855;SDS011;52631;42.208;24.656;2023-08-30T02:36:51;13.55;;;9.75;;
65855;SDS011;52631;42.208;24.656;2023-08-30T02:39:16;13.05;;;9.07;;
65855;SDS011;52631;42.208;24.656;2023-08-30T02:41:41;18.27;;;9.65;;
65855;SDS011;52631;42.208;24.656;2023-08-30T02:44:13;15.05;;;10.15;;
65855;SDS011;52631;42.208;24.656;2023-08-30T02:46:39;12.68;;;9.50;;
65855;SDS011;52631;42.208;24.656;2023-08-30T02:49:05;14.25;;;9.68;;
65855;SDS011;52631;42.208;24.656;2023-08-30T02:51:31;11.82;;;9.20;;
65855;SDS011;52631;42.208;24.656;2023-08-30T02:53:56;13.48;;;9.50;;
65855;SDS011;52631;42.208;24.656;2023-08-30T02:56:22;13.73;;;9.55;;
65855;SDS011;52631;42.208;24.656;2023-08-30T02:58:47;13.70;;;9.57;;
65855;SDS011;52631;42.208;24.656;2023-08-30T03:01:13;13.93;;;9.25;;
65855;SDS011;52631;42.208;24.656;2023-08-30T03:03:39;15.45;;;10.57;;
65855;SDS011;52631;42.208;24.656;2023-08-30T03:06:04;16.55;;;10.18;;
65855;SDS011;52631;42.208;24.656;2023-08-30T03:08:30;13.85;;;10.35;;
65855;SDS011;52631;42.208;24.656;2023-08-30T03:11:06;22.33;;;11.15;;
65855;SDS011;52631;42.208;24.656;2023-08-30T03:13:33;24.23;;;13.02;;
65855;SDS011;52631;42.208;24.656;2023-08-30T03:16:00;25.83;;;13.35;;
65855;SDS011;52631;42.208;24.656;2023-08-30T03:18:25;23.90;;;13.00;;
65855;SDS011;52631;42.208;24.656;2023-08-30T03:20:59;28.05;;;14.40;;
65855;SDS011;52631;42.208;24.656;2023-08-30T03:23:26;23.35;;;12.45;;
65855;SDS011;52631;42.208;24.656;2023-08-30T03:25:51;18.90;;;10.93;;
65855;SDS011;52631;42.208;24.656;2023-08-30T03:28:16;18.33;;;10.27;;
65855;SDS011;52631;42.208;24.656;2023-08-30T03:30:42;16.08;;;9.57;;
65855;SDS011;52631;42.208;24.656;2023-08-30T03:33:07;17.25;;;9.73;;
65855;SDS011;52631;42.208;24.656;2023-08-30T03:35:36;16.17;;;9.57;;
65855;SDS011;52631;42.208;24.656;2023-08-30T03:38:01;14.40;;;9.60;;
65855;SDS011;52631;42.208;24.656;2023-08-30T03:40:27;14.50;;;9.75;;
65855;SDS011;52631;42.208;24.656;2023-08-30T03:42:52;16.25;;;10.18;;
65855;SDS011;52631;42.208;24.656;2023-08-30T03:45:18;15.65;;;9.73;;
65855;SDS011;52631;42.208;24.656;2023-08-30T03:47:43;16.90;;;9.73;;
65855;SDS011;52631;42.208;24.656;2023-08-30T03:50:09;17.13;;;9.95;;
65855;SDS011;52631;42.208;24.656;2023-08-30T03:52:34;12.60;;;9.63;;
65855;SDS011;52631;42.208;24.656;2023-08-30T03:55:00;17.70;;;10.25;;
65855;SDS011;52631;42.208;24.656;2023-08-30T03:57:26;13.98;;;9.07;;
65855;SDS011;52631;42.208;24.656;2023-08-30T03:59:51;13.48;;;9.60;;
65855;SDS011;52631;42.208;24.656;2023-08-30T04:02:17;14.77;;;9.35;;
65855;SDS011;52631;42.208;24.656;2023-08-30T04:04:42;13.55;;;8.82;;
65855;SDS011;52631;42.208;24.656;2023-08-30T04:07:08;14.98;;;10.52;;
65855;SDS011;52631;42.208;24.656;2023-08-30T04:09:33;12.82;;;9.07;;
65855;SDS011;52631;42.208;24.656;2023-08-30T04:11:59;13.82;;;9.93;;
65855;SDS011;52631;42.208;24.656;2023-08-30T04:14:25;13.98;;;8.95;;
65855;SDS011;52631;42.208;24.656;2023-08-30T04:16:51;12.98;;;9.85;;
65855;SDS011;52631;42.208;24.656;2023-08-30T04:19:17;15.50;;;9.73;;
65855;SDS011;52631;42.208;24.656;2023-08-30T04:21:43;15.93;;;10.23;;
65855;SDS011;52631;42.208;24.656;2023-08-30T04:24:08;15.18;;;9.45;;
65855;SDS011;52631;42.208;24.656;2023-08-30T04:26:34;12.75;;;8.95;;
65855;SDS011;52631;42.208;24.656;2023-08-30T04:28:59;13.68;;;9.38;;
65855;SDS011;52631;42.208;24.656;2023-08-30T04:31:25;15.30;;;10.02;;
65855;SDS011;52631;42.208;24.656;2023-08-30T04:33:50;16.35;;;10.02;;
65855;SDS011;52631;42.208;24.656;2023-08-30T04:36:17;14.73;;;9.50;;
65855;SDS011;52631;42.208;24.656;2023-08-30T04:38:42;14.80;;;9.00;;
65855;SDS011;52631;42.208;24.656;2023-08-30T04:41:08;13.93;;;9.43;;
65855;SDS011;52631;42.208;24.656;2023-08-30T04:43:34;14.93;;;10.52;;
65855;SDS011;52631;42.208;24.656;2023-08-30T04:46:00;16.38;;;10.10;;
65855;SDS011;52631;42.208;24.656;2023-08-30T04:48:25;14.13;;;9.70;;
65855;SDS011;52631;42.208;24.656;2023-08-30T04:50:57;16.17;;;9.93;;
65855;SDS011;52631;42.208;24.656;2023-08-30T04:53:26;15.00;;;9.93;;
65855;SDS011;52631;42.208;24.656;2023-08-30T04:55:52;18.85;;;10.38;;
65855;SDS011;52631;42.208;24.656;2023-08-30T04:58:17;15.48;;;9.55;;
65855;SDS011;52631;42.208;24.656;2023-08-30T05:00:43;14.40;;;9.68;;
65855;SDS011;52631;42.208;24.656;2023-08-30T05:03:08;16.00;;;10.45;;
65855;SDS011;52631;42.208;24.656;2023-08-30T05:05:34;17.83;;;10.38;;
65855;SDS011;52631;42.208;24.656;2023-08-30T05:07:59;16.38;;;10.40;;
65855;SDS011;52631;42.208;24.656;2023-08-30T05:10:25;15.88;;;10.30;;
65855;SDS011;52631;42.208;24.656;2023-08-30T05:12:51;16.48;;;10.48;;
65855;SDS011;52631;42.208;24.656;2023-08-30T05:15:17;15.55;;;10.35;;
65855;SDS011;52631;42.208;24.656;2023-08-30T05:17:45;14.20;;;9.88;;
65855;SDS011;52631;42.208;24.656;2023-08-30T05:20:11;15.18;;;9.25;;
65855;SDS011;52631;42.208;24.656;2023-08-30T05:22:36;16.20;;;10.38;;
65855;SDS011;52631;42.208;24.656;2023-08-30T05:25:02;14.57;;;9.65;;
65855;SDS011;52631;42.208;24.656;2023-08-30T05:27:28;14.50;;;10.05;;
65855;SDS011;52631;42.208;24.656;2023-08-30T05:29:53;17.08;;;9.27;;
65855;SDS011;52631;42.208;24.656;2023-08-30T05:32:21;14.75;;;10.15;;
65855;SDS011;52631;42.208;24.656;2023-08-30T05:34:46;17.02;;;10.18;;
65855;SDS011;52631;42.208;24.656;2023-08-30T05:37:12;14.07;;;9.48;;
65855;SDS011;52631;42.208;24.656;2023-08-30T05:39:37;12.95;;;9.70;;
65855;SDS011;52631;42.208;24.656;2023-08-30T05:42:03;17.48;;;10.38;;
65855;SDS011;52631;42.208;24.656;2023-08-30T05:44:28;15.20;;;9.90;;
65855;SDS011;52631;42.208;24.656;2023-08-30T05:46:54;16.30;;;9.85;;
65855;SDS011;52631;42.208;24.656;2023-08-30T05:49:19;15.63;;;9.98;;
65855;SDS011;52631;42.208;24.656;2023-08-30T05:51:45;15.02;;;10.13;;
65855;SDS011;52631;42.208;24.656;2023-08-30T05:54:12;14.75;;;10.38;;
65855;SDS011;52631;42.208;24.656;2023-08-30T05:56:38;18.27;;;10.45;;
65855;SDS011;52631;42.208;24.656;2023-08-30T05:59:03;14.55;;;10.27;;
65855;SDS011;52631;42.208;24.656;2023-08-30T06:01:29;16.50;;;10.40;;
65855;SDS011;52631;42.208;24.656;2023-08-30T06:03:55;13.75;;;9.82;;
65855;SDS011;52631;42.208;24.656;2023-08-30T06:06:20;13.05;;;9.43;;
65855;SDS011;52631;42.208;24.656;2023-08-30T06:08:46;14.98;;;9.45;;
65855;SDS011;52631;42.208;24.656;2023-08-30T06:11:11;15.43;;;10.15;;
65855;SDS011;52631;42.208;24.656;2023-08-30T06:13:37;15.10;;;9.65;;
65855;SDS011;52631;42.208;24.656;2023-08-30T06:16:03;14.35;;;9.40;;
65855;SDS011;52631;42.208;24.656;2023-08-30T06:18:29;17.20;;;10.00;;
65855;SDS011;52631;42.208;24.656;2023-08-30T06:20:55;14.40;;;9.27;;
65855;SDS011;52631;42.208;24.656;2023-08-30T06:23:21;12.85;;;9.13;;
65855;SDS011;52631;42.208;24.656;2023-08-30T06:25:53;14.00;;;9.85;;
65855;SDS011;52631;42.208;24.656;2023-08-30T06:28:22;16.40;;;9.65;;
65855;SDS011;52631;42.208;24.656;2023-08-30T06:30:48;14.45;;;9.40;;
65855;SDS011;52631;42.208;24.656;2023-08-30T06:33:14;14.75;;;9.68;;
65855;SDS011;52631;42.208;24.656;2023-08-30T06:35:39;13.90;;;10.10;;
65855;SDS011;52631;42.208;24.656;2023-08-30T06:38:05;13.27;;;9.70;;
65855;SDS011;52631;42.208;24.656;2023-08-30T06:40:30;14.70;;;10.48;;
65855;SDS011;52631;42.208;24.656;2023-08-30T06:42:56;14.95;;;9.90;;
65855;SDS011;52631;42.208;24.656;2023-08-30T06:45:22;12.65;;;8.82;;
65855;SDS011;52631;42.208;24.656;2023-08-30T06:47:51;13.85;;;9.80;;
65855;SDS011;52631;42.208;24.656;2023-08-30T06:50:19;11.30;;;9.18;;
65855;SDS011;52631;42.208;24.656;2023-08-30T06:52:44;12.93;;;9.13;;
65855;SDS011;52631;42.208;24.656;2023-08-30T06:55:10;11.88;;;9.30;;
65855;SDS011;52631;42.208;24.656;2023-08-30T06:57:35;13.25;;;8.07;;
65855;SDS011;52631;42.208;24.656;2023-08-30T07:00:01;14.93;;;10.18;;
65855;SDS011;52631;42.208;24.656;2023-08-30T07:02:33;12.35;;;9.43;;
65855;SDS011;52631;42.208;24.656;2023-08-30T07:05:00;13.68;;;9.10;;
65855;SDS011;52631;42.208;24.656;2023-08-30T07:07:25;14.35;;;9.52;;
65855;SDS011;52631;42.208;24.656;2023-08-30T07:09:50;12.95;;;8.38;;
65855;SDS011;52631;42.208;24.656;2023-08-30T07:12:16;12.07;;;9.02;;
65855;SDS011;52631;42.208;24.656;2023-08-30T07:14:41;14.05;;;8.90;;
65855;SDS011;52631;42.208;24.656;2023-08-30T07:17:07;13.65;;;9.02;;
65855;SDS011;52631;42.208;24.656;2023-08-30T07:19:32;14.57;;;9.95;;
65855;SDS011;52631;42.208;24.656;2023-08-30T07:21:58;15.77;;;10.02;;
65855;SDS011;52631;42.208;24.656;2023-08-30T07:24:23;13.23;;;9.88;;
65855;SDS011;52631;42.208;24.656;2023-08-30T07:26:49;14.10;;;9.98;;
65855;SDS011;52631;42.208;24.656;2023-08-30T07:29:14;15.20;;;9.90;;
65855;SDS011;52631;42.208;24.656;2023-08-30T10:22:24;12.15;;;8.90;;
65855;SDS011;52631;42.208;24.656;2023-08-30T10:24:57;12.70;;;8.95;;
65855;SDS011;52631;42.208;24.656;2023-08-30T10:27:26;14.45;;;9.10;;
65855;SDS011;52631;42.208;24.656;2023-08-30T10:29:51;12.25;;;9.20;;
65855;SDS011;52631;42.208;24.656;2023-08-30T10:32:20;11.13;;;9.15;;
65855;SDS011;52631;42.208;24.656;2023-08-30T10:34:49;13.38;;;9.82;;
65855;SDS011;52631;42.208;24.656;2023-08-30T10:37:15;11.85;;;9.10;;
65855;SDS011;52631;42.208;24.656;2023-08-30T10:39:42;13.32;;;9.30;;
65855;SDS011;52631;42.208;24.656;2023-08-30T10:42:08;14.65;;;9.63;;
65855;SDS011;52631;42.208;24.656;2023-08-30T10:44:50;12.85;;;9.75;;
65855;SDS011;52631;42.208;24.656;2023-08-30T10:47:19;14.20;;;9.43;;
65855;SDS011;52631;42.208;24.656;2023-08-30T10:49:47;11.45;;;9.63;;
65855;SDS011;52631;42.208;24.656;2023-08-30T10:52:13;12.38;;;9.60;;
65855;SDS011;52631;42.208;24.656;2023-08-30T10:54:38;13.23;;;9.88;;
65855;SDS011;52631;42.208;24.656;2023-08-30T10:57:04;12.15;;;9.63;;
65855;SDS011;52631;42.208;24.656;2023-08-30T10:59:29;14.40;;;9.85;;
65855;SDS011;52631;42.208;24.656;2023-08-30T11:01:55;12.57;;;9.52;;
65855;SDS011;52631;42.208;24.656;2023-08-30T11:04:21;43.10;;;11.05;;
65855;SDS011;52631;42.208;24.656;2023-08-30T11:06:51;12.30;;;9.82;;
65855;SDS011;52631;42.208;24.656;2023-08-30T11:09:18;10.95;;;9.85;;
65855;SDS011;52631;42.208;24.656;2023-08-30T11:11:45;11.25;;;9.73;;
65855;SDS011;52631;42.208;24.656;2023-08-30T11:14:11;12.73;;;9.73;;
65855;SDS011;52631;42.208;24.656;2023-08-30T11:16:38;16.05;;;10.65;;
65855;SDS011;52631;42.208;24.656;2023-08-30T11:19:04;13.68;;;9.55;;
65855;SDS011;52631;42.208;24.656;2023-08-30T11:21:31;12.35;;;9.48;;
65855;SDS011;52631;42.208;24.656;2023-08-30T11:23:58;12.52;;;9.85;;
65855;SDS011;52631;42.208;24.656;2023-08-30T11:26:24;15.98;;;9.77;;
65855;SDS011;52631;42.208;24.656;2023-08-30T11:28:49;17.90;;;10.13;;
65855;SDS011;52631;42.208;24.656;2023-08-30T11:31:26;13.45;;;9.73;;
65855;SDS011;52631;42.208;24.656;2023-08-30T11:33:58;11.80;;;8.80;;
65855;SDS011;52631;42.208;24.656;2023-08-30T11:43:40;12.45;;;9.75;;
65855;SDS011;52631;42.208;24.656;2023-08-30T11:46:06;13.90;;;9.88;;
65855;SDS011;52631;42.208;24.656;2023-08-30T11:48:31;11.10;;;9.90;;
65855;SDS011;52631;42.208;24.656;2023-08-30T11:50:57;16.50;;;9.88;;
65855;SDS011;52631;42.208;24.656;2023-08-30T11:53:23;14.18;;;10.05;;
65855;SDS011;52631;42.208;24.656;2023-08-30T11:55:49;11.48;;;9.57;;
65855;SDS011;52631;42.208;24.656;2023-08-30T11:58:15;12.63;;;9.88;;
65855;SDS011;52631;42.208;24.656;2023-08-30T12:00:40;20.60;;;10.27;;
65855;SDS011;52631;42.208;24.656;2023-08-30T12:03:06;13.35;;;10.35;;
65855;SDS011;52631;42.208;24.656;2023-08-30T12:05:31;14.48;;;10.32;;
65855;SDS011;52631;42.208;24.656;2023-08-30T12:08:00;11.25;;;9.65;;
65855;SDS011;52631;42.208;24.656;2023-08-30T12:10:27;11.95;;;10.45;;
65855;SDS011;52631;42.208;24.656;2023-08-30T12:12:53;13.32;;;10.80;;
65855;SDS011;52631;42.208;24.656;2023-08-30T12:15:19;16.45;;;10.07;;
65855;SDS011;52631;42.208;24.656;2023-08-30T12:17:49;13.77;;;10.23;;
65855;SDS011;52631;42.208;24.656;2023-08-30T12:20:15;15.63;;;10.65;;
65855;SDS011;52631;42.208;24.656;2023-08-30T12:22:42;12.20;;;10.85;;
65855;SDS011;52631;42.208;24.656;2023-08-30T12:27:43;14.90;;;10.68;;
65855;SDS011;52631;42.208;24.656;2023-08-30T12:30:08;15.95;;;10.35;;
65855;SDS011;52631;42.208;24.656;2023-08-30T12:32:34;11.65;;;9.73;;
65855;SDS011;52631;42.208;24.656;2023-08-30T12:35:00;13.88;;;10.52;;
65855;SDS011;52631;42.208;24.656;2023-08-30T12:37:25;15.23;;;10.38;;
65855;SDS011;52631;42.208;24.656;2023-08-30T12:39:51;12.05;;;10.63;;
65855;SDS011;52631;42.208;24.656;2023-08-30T12:42:16;14.13;;;10.57;;
65855;SDS011;52631;42.208;24.656;2023-08-30T12:44:42;12.70;;;11.05;;
65855;SDS011;52631;42.208;24.656;2023-08-30T12:47:07;15.15;;;11.35;;
65855;SDS011;52631;42.208;24.656;2023-08-30T12:49:33;16.10;;;11.52;;
65855;SDS011;52631;42.208;24.656;2023-08-30T12:51:59;15.00;;;11.05;;
65855;SDS011;52631;42.208;24.656;2023-08-30T12:54:24;13.30;;;10.88;;
65855;SDS011;52631;42.208;24.656;2023-08-30T12:56:50;17.08;;;11.23;;
65855;SDS011;52631;42.208;24.656;2023-08-30T12:59:15;13.60;;;10.23;;
65855;SDS011;52631;42.208;24.656;2023-08-30T13:01:41;15.23;;;11.00;;
65855;SDS011;52631;42.208;24.656;2023-08-30T13:04:06;13.27;;;10.55;;
65855;SDS011;52631;42.208;24.656;2023-08-30T13:06:32;13.75;;;10.77;;
65855;SDS011;52631;42.208;24.656;2023-08-30T13:08:58;15.00;;;11.32;;
65855;SDS011;52631;42.208;24.656;2023-08-30T13:11:23;17.30;;;11.27;;
65855;SDS011;52631;42.208;24.656;2023-08-30T13:13:51;15.45;;;11.32;;
65855;SDS011;52631;42.208;24.656;2023-08-30T13:16:16;14.43;;;10.93;;
65855;SDS011;52631;42.208;24.656;2023-08-30T13:18:42;15.13;;;11.18;;
65855;SDS011;52631;42.208;24.656;2023-08-30T13:21:07;13.02;;;11.35;;
65855;SDS011;52631;42.208;24.656;2023-08-30T13:23:33;14.32;;;11.13;;
65855;SDS011;52631;42.208;24.656;2023-08-30T13:25:58;14.75;;;11.35;;
65855;SDS011;52631;42.208;24.656;2023-08-30T13:28:24;13.88;;;10.98;;
65855;SDS011;52631;42.208;24.656;2023-08-30T13:30:49;14.48;;;11.32;;
65855;SDS011;52631;42.208;24.656;2023-08-30T13:33:16;12.18;;;10.73;;
65855;SDS011;52631;42.208;24.656;2023-08-30T13:35:42;13.35;;;10.90;;
65855;SDS011;52631;42.208;24.656;2023-08-30T13:38:07;16.33;;;11.30;;
65855;SDS011;52631;42.208;24.656;2023-08-30T13:40:32;13.23;;;10.63;;
65855;SDS011;52631;42.208;24.656;2023-08-30T13:42:58;17.42;;;10.98;;
65855;SDS011;52631;42.208;24.656;2023-08-30T13:45:24;14.57;;;10.52;;
65855;SDS011;52631;42.208;24.656;2023-08-30T13:47:49;14.00;;;10.35;;
65855;SDS011;52631;42.208;24.656;2023-08-30T13:50:18;50.17;;;13.18;;
65855;SDS011;52631;42.208;24.656;2023-08-30T13:52:43;15.45;;;10.63;;
65855;SDS011;52631;42.208;24.656;2023-08-30T13:55:09;13.68;;;10.70;;
65855;SDS011;52631;42.208;24.656;2023-08-30T13:57:34;17.38;;;10.90;;
65855;SDS011;52631;42.208;24.656;2023-08-30T14:00:00;14.05;;;10.57;;
65855;SDS011;52631;42.208;24.656;2023-08-30T14:02:28;14.95;;;11.43;;
65855;SDS011;52631;42.208;24.656;2023-08-30T14:04:54;14.70;;;11.10;;
65855;SDS011;52631;42.208;24.656;2023-08-30T14:07:19;14.90;;;10.70;;
65855;SDS011;52631;42.208;24.656;2023-08-30T14:09:45;18.65;;;11.57;;
65855;SDS011;52631;42.208;24.656;2023-08-30T14:12:10;15.27;;;11.77;;
65855;SDS011;52631;42.208;24.656;2023-08-30T14:14:36;14.23;;;10.93;;
65855;SDS011;52631;42.208;24.656;2023-08-30T14:17:01;14.45;;;10.82;;
65855;SDS011;52631;42.208;24.656;2023-08-30T14:19:27;16.23;;;11.55;;
65855;SDS011;52631;42.208;24.656;2023-08-30T14:21:52;12.88;;;10.65;;
65855;SDS011;52631;42.208;24.656;2023-08-30T14:24:20;16.60;;;11.20;;
65855;SDS011;52631;42.208;24.656;2023-08-30T14:26:45;14.48;;;11.43;;
65855;SDS011;52631;42.208;24.656;2023-08-30T14:29:11;14.60;;;11.43;;
65855;SDS011;52631;42.208;24.656;2023-08-30T14:31:36;14.90;;;10.63;;
65855;SDS011;52631;42.208;24.656;2023-08-30T14:34:02;15.60;;;10.68;;
65855;SDS011;52631;42.208;24.656;2023-08-30T14:36:27;16.38;;;10.88;;
65855;SDS011;52631;42.208;24.656;2023-08-30T14:38:53;12.52;;;11.13;;
65855;SDS011;52631;42.208;24.656;2023-08-30T14:41:18;12.07;;;10.48;;
65855;SDS011;52631;42.208;24.656;2023-08-30T14:43:44;13.45;;;10.80;;
65855;SDS011;52631;42.208;24.656;2023-08-30T14:46:09;13.82;;;9.98;;
65855;SDS011;52631;42.208;24.656;2023-08-30T14:48:35;13.88;;;10.40;;
65855;SDS011;52631;42.208;24.656;2023-08-30T14:51:00;12.82;;;10.80;;
65855;SDS011;52631;42.208;24.656;2023-08-30T14:53:26;12.95;;;9.82;;
65855;SDS011;52631;42.208;24.656;2023-08-30T14:55:51;14.57;;;10.57;;
65855;SDS011;52631;42.208;24.656;2023-08-30T14:58:17;12.77;;;10.52;;
65855;SDS011;52631;42.208;24.656;2023-08-30T15:00:43;15.15;;;10.55;;
65855;SDS011;52631;42.208;24.656;2023-08-30T15:03:09;17.58;;;11.18;;
65855;SDS011;52631;42.208;24.656;2023-08-30T15:05:35;12.52;;;10.27;;
65855;SDS011;52631;42.208;24.656;2023-08-30T15:08:00;13.40;;;9.77;;
65855;SDS011;52631;42.208;24.656;2023-08-30T15:10:26;13.25;;;10.60;;
65855;SDS011;52631;42.208;24.656;2023-08-30T15:12:51;12.88;;;10.52;;
65855;SDS011;52631;42.208;24.656;2023-08-30T15:15:16;14.35;;;10.50;;
65855;SDS011;52631;42.208;24.656;2023-08-30T15:17:43;15.63;;;10.45;;
65855;SDS011;52631;42.208;24.656;2023-08-30T15:20:09;15.90;;;11.00;;
65855;SDS011;52631;42.208;24.656;2023-08-30T15:22:35;14.45;;;11.15;;
65855;SDS011;52631;42.208;24.656;2023-08-30T15:25:00;15.95;;;11.93;;
65855;SDS011;52631;42.208;24.656;2023-08-30T15:27:31;14.77;;;11.27;;
65855;SDS011;52631;42.208;24.656;2023-08-30T15:29:58;13.60;;;11.13;;
65855;SDS011;52631;42.208;24.656;2023-08-30T15:32:24;16.15;;;11.70;;
65855;SDS011;52631;42.208;24.656;2023-08-30T15:34:49;14.27;;;10.43;;
65855;SDS011;52631;42.208;24.656;2023-08-30T15:37:15;14.27;;;11.15;;
65855;SDS011;52631;42.208;24.656;2023-08-30T15:39:41;13.55;;;10.75;;
65855;SDS011;52631;42.208;24.656;2023-08-30T15:42:07;14.88;;;10.77;;
65855;SDS011;52631;42.208;24.656;2023-08-30T15:44:32;14.48;;;10.73;;
65855;SDS011;52631;42.208;24.656;2023-08-30T15:46:58;16.10;;;10.73;;
65855;SDS011;52631;42.208;24.656;2023-08-30T15:49:23;14.27;;;11.43;;
65855;SDS011;52631;42.208;24.656;2023-08-30T15:51:49;15.00;;;9.63;;
65855;SDS011;52631;42.208;24.656;2023-08-30T15:54:14;16.40;;;10.23;;
65855;SDS011;52631;42.208;24.656;2023-08-30T15:56:40;13.85;;;9.80;;
65855;SDS011;52631;42.208;24.656;2023-08-30T15:59:06;15.18;;;9.65;;
65855;SDS011;52631;42.208;24.656;2023-08-30T16:01:31;14.20;;;10.00;;
65855;SDS011;52631;42.208;24.656;2023-08-30T16:03:59;13.57;;;9.88;;
65855;SDS011;52631;42.208;24.656;2023-08-30T16:06:24;13.68;;;10.20;;
65855;SDS011;52631;42.208;24.656;2023-08-30T16:08:50;13.77;;;9.30;;
65855;SDS011;52631;42.208;24.656;2023-08-30T16:11:15;13.80;;;9.27;;
65855;SDS011;52631;42.208;24.656;2023-08-30T16:13:41;12.43;;;9.15;;
65855;SDS011;52631;42.208;24.656;2023-08-30T16:16:06;14.85;;;9.15;;
65855;SDS011;52631;42.208;24.656;2023-08-30T16:18:32;12.88;;;8.50;;
65855;SDS011;52631;42.208;24.656;2023-08-30T16:20:57;16.45;;;8.95;;
65855;SDS011;52631;42.208;24.656;2023-08-30T16:23:22;11.77;;;8.18;;
65855;SDS011;52631;42.208;24.656;2023-08-30T16:25:55;12.07;;;8.15;;
65855;SDS011;52631;42.208;24.656;2023-08-30T16:28:22;12.38;;;8.23;;
65855;SDS011;52631;42.208;24.656;2023-08-30T16:30:48;35.15;;;12.90;;
65855;SDS011;52631;42.208;24.656;2023-08-30T16:33:14;20.23;;;10.40;;
65855;SDS011;52631;42.208;24.656;2023-08-30T16:35:43;11.13;;;7.75;;
65855;SDS011;52631;42.208;24.656;2023-08-30T16:38:10;12.20;;;8.15;;
65855;SDS011;52631;42.208;24.656;2023-08-30T16:40:36;13.02;;;8.13;;
65855;SDS011;52631;42.208;24.656;2023-08-30T16:43:01;11.20;;;8.98;;
65855;SDS011;52631;42.208;24.656;2023-08-30T16:45:27;11.63;;;7.60;;
65855;SDS011;52631;42.208;24.656;2023-08-30T16:47:53;10.82;;;8.02;;
65855;SDS011;52631;42.208;24.656;2023-08-30T16:50:18;12.38;;;7.18;;
65855;SDS011;52631;42.208;24.656;2023-08-30T16:52:43;10.63;;;7.88;;
65855;SDS011;52631;42.208;24.656;2023-08-30T16:55:09;14.10;;;7.68;;
65855;SDS011;52631;42.208;24.656;2023-08-30T16:57:34;9.85;;;7.47;;
65855;SDS011;52631;42.208;24.656;2023-08-30T16:59:59;9.50;;;6.20;;
65855;SDS011;52631;42.208;24.656;2023-08-30T17:02:25;11.10;;;7.38;;
65855;SDS011;52631;42.208;24.656;2023-08-30T17:04:51;9.30;;;6.88;;
65855;SDS011;52631;42.208;24.656;2023-08-30T17:07:16;11.30;;;6.85;;
65855;SDS011;52631;42.208;24.656;2023-08-30T17:09:42;14.25;;;6.90;;
65855;SDS011;52631;42.208;24.656;2023-08-30T17:12:07;9.68;;;6.68;;
65855;SDS011;52631;42.208;24.656;2023-08-30T17:14:34;11.38;;;6.38;;
65855;SDS011;52631;42.208;24.656;2023-08-30T17:17:00;12.05;;;7.05;;
65855;SDS011;52631;42.208;24.656;2023-08-30T17:19:26;11.45;;;6.88;;